Air Resources Laboratory banner image
Air Resources Laboratory web site National Oceanic and Atmospheric Administration (NOAA)

nh metar


KAFN 251052Z AUTO 19008KT 10SM CLR 12/11 A2999 RMK AO2 SLP158 T01220106 $=
KASH 251056Z 22004KT 10SM CLR 18/10 A2994 RMK AO2 SLP148 T01780100=
KBML 251052Z AUTO 00000KT 10SM CLR 11/08 A2986 RMK AO2 SLP110 T01110078=
KCON 251051Z AUTO 15005KT 10SM CLR 14/11 A2992 RMK AO2 SLP130 T01440106=
KCWN 251058Z AUTO 00000KT 10SM CLR 15/01 A3017 RMK AO2 SLP039 T01510009 $=
KDAW 251051Z AUTO 00000KT 10SM CLR 16/11 A2989 RMK AO2 SLP117 T01610106=
KEEN 251056Z AUTO 20003KT 10SM CLR 09/09 A2999 RMK AO2 SLP171 T00940089=
KHIE 251052Z AUTO 00000KT 10SM CLR 08/06 A2989 RMK AO2 SLP125 T00780061=
KLCI 251056Z AUTO 30003KT 10SM CLR 15/09 A2990 RMK AO2 SLP139 T01500094=
KLEB 251053Z 00000KT 10SM CLR 11/08 A2992 RMK AO2 SLP126 T01110078=
KMHT 251053Z 19005KT 10SM CLR 17/09 A2991 RMK AO2 SLP140 T01720094=
KPSM 251056Z 23008KT 10SM FEW250 16/10 A2988 RMK AO2A SLP120 T01570102=